sensor_id;sensor_type;location;lat;lon;timestamp;pressure;altitude;pressure_sealevel;temperature;humidity
73338;BME280;61575;49.908;35.556;2022-08-19T00:02:24;98636.22;;;22.03;61.40
73338;BME280;61575;49.908;35.556;2022-08-19T00:05:26;98635.41;;;22.02;61.30
73338;BME280;61575;49.908;35.556;2022-08-19T00:08:28;98635.31;;;21.97;62.01
73338;BME280;61575;49.908;35.556;2022-08-19T00:11:30;98629.81;;;21.92;62.17
73338;BME280;61575;49.908;35.556;2022-08-19T00:14:32;98634.72;;;21.90;62.10
73338;BME280;61575;49.908;35.556;2022-08-19T00:17:34;98638.50;;;21.89;62.60
73338;BME280;61575;49.908;35.556;2022-08-19T00:20:42;98633.56;;;21.86;62.90
73338;BME280;61575;49.908;35.556;2022-08-19T00:23:47;98632.44;;;21.82;62.81
73338;BME280;61575;49.908;35.556;2022-08-19T00:27:02;98643.88;;;21.79;63.33
73338;BME280;61575;49.908;35.556;2022-08-19T00:30:28;98636.75;;;21.78;63.03
73338;BME280;61575;49.908;35.556;2022-08-19T00:33:43;98647.38;;;21.74;63.83
73338;BME280;61575;49.908;35.556;2022-08-19T00:36:45;98646.75;;;21.67;64.12
73338;BME280;61575;49.908;35.556;2022-08-19T00:39:50;98645.34;;;21.64;64.39
73338;BME280;61575;49.908;35.556;2022-08-19T00:42:53;98647.50;;;21.62;64.37
73338;BME280;61575;49.908;35.556;2022-08-19T00:45:55;98648.03;;;21.59;64.68
73338;BME280;61575;49.908;35.556;2022-08-19T00:49:00;98650.69;;;21.54;65.15
73338;BME280;61575;49.908;35.556;2022-08-19T00:52:18;98640.78;;;21.48;65.83
73338;BME280;61575;49.908;35.556;2022-08-19T00:55:24;98645.69;;;21.46;65.73
73338;BME280;61575;49.908;35.556;2022-08-19T00:58:30;98642.06;;;21.41;66.15
73338;BME280;61575;49.908;35.556;2022-08-19T01:01:36;98641.75;;;21.37;66.27
73338;BME280;61575;49.908;35.556;2022-08-19T01:04:38;98637.94;;;21.38;66.51
73338;BME280;61575;49.908;35.556;2022-08-19T01:07:40;98638.72;;;21.33;67.08
73338;BME280;61575;49.908;35.556;2022-08-19T01:10:45;98640.03;;;21.31;67.12
73338;BME280;61575;49.908;35.556;2022-08-19T01:13:48;98640.56;;;21.28;67.52
73338;BME280;61575;49.908;35.556;2022-08-19T01:16:53;98649.81;;;21.27;67.88
73338;BME280;61575;49.908;35.556;2022-08-19T01:19:58;98651.38;;;21.23;68.12
73338;BME280;61575;49.908;35.556;2022-08-19T01:23:00;98644.75;;;21.19;68.23
73338;BME280;61575;49.908;35.556;2022-08-19T01:26:03;98640.13;;;21.19;68.38
73338;BME280;61575;49.908;35.556;2022-08-19T01:29:08;98642.03;;;21.19;68.47
73338;BME280;61575;49.908;35.556;2022-08-19T01:32:13;98635.69;;;21.13;69.02
73338;BME280;61575;49.908;35.556;2022-08-19T01:35:35;98635.94;;;21.12;69.09
73338;BME280;61575;49.908;35.556;2022-08-19T01:38:37;98629.28;;;21.02;69.77
73338;BME280;61575;49.908;35.556;2022-08-19T01:41:46;98624.97;;;21.07;69.47
73338;BME280;61575;49.908;35.556;2022-08-19T01:44:48;98633.97;;;21.07;69.55
73338;BME280;61575;49.908;35.556;2022-08-19T01:47:50;98631.81;;;21.09;69.76
73338;BME280;61575;49.908;35.556;2022-08-19T01:51:03;98638.34;;;21.08;70.11
73338;BME280;61575;49.908;35.556;2022-08-19T01:54:05;98643.91;;;20.96;70.84
73338;BME280;61575;49.908;35.556;2022-08-19T01:57:10;98631.44;;;21.00;70.78
73338;BME280;61575;49.908;35.556;2022-08-19T02:00:15;98638.78;;;21.00;71.24
73338;BME280;61575;49.908;35.556;2022-08-19T02:03:17;98638.47;;;20.96;71.25
73338;BME280;61575;49.908;35.556;2022-08-19T02:06:19;98647.72;;;20.95;71.85
73338;BME280;61575;49.908;35.556;2022-08-19T02:09:27;98653.66;;;20.92;71.66
73338;BME280;61575;49.908;35.556;2022-08-19T02:12:29;98646.56;;;20.91;72.01
73338;BME280;61575;49.908;35.556;2022-08-19T02:15:31;98648.22;;;20.92;72.18
73338;BME280;61575;49.908;35.556;2022-08-19T02:18:33;98650.38;;;20.90;72.08
73338;BME280;61575;49.908;35.556;2022-08-19T02:21:36;98657.47;;;20.91;72.30
73338;BME280;61575;49.908;35.556;2022-08-19T02:24:38;98665.13;;;20.94;72.43
73338;BME280;61575;49.908;35.556;2022-08-19T02:27:41;98643.84;;;20.91;72.75
73338;BME280;61575;49.908;35.556;2022-08-19T02:30:43;98660.19;;;20.91;72.98
73338;BME280;61575;49.908;35.556;2022-08-19T02:33:46;98657.16;;;20.88;73.30
73338;BME280;61575;49.908;35.556;2022-08-19T02:36:48;98662.34;;;20.89;73.15
73338;BME280;61575;49.908;35.556;2022-08-19T02:39:52;98652.59;;;20.93;73.06
73338;BME280;61575;49.908;35.556;2022-08-19T02:42:56;98658.63;;;20.95;73.33
73338;BME280;61575;49.908;35.556;2022-08-19T02:45:58;98654.31;;;20.99;73.25
73338;BME280;61575;49.908;35.556;2022-08-19T02:49:04;98660.91;;;21.03;73.56
73338;BME280;61575;49.908;35.556;2022-08-19T02:52:06;98658.44;;;21.02;73.68
73338;BME280;61575;49.908;35.556;2022-08-19T02:55:08;98654.97;;;21.07;73.74
73338;BME280;61575;49.908;35.556;2022-08-19T02:58:11;98654.38;;;21.05;73.50
73338;BME280;61575;49.908;35.556;2022-08-19T03:01:26;98657.69;;;21.07;73.68
73338;BME280;61575;49.908;35.556;2022-08-19T03:04:28;98666.38;;;21.03;73.97
73338;BME280;61575;49.908;35.556;2022-08-19T03:07:31;98672.06;;;21.02;74.16
73338;BME280;61575;49.908;35.556;2022-08-19T03:10:33;98680.50;;;21.00;74.21
73338;BME280;61575;49.908;35.556;2022-08-19T03:13:35;98685.69;;;21.02;74.17
73338;BME280;61575;49.908;35.556;2022-08-19T03:16:43;98679.72;;;21.05;74.35
73338;BME280;61575;49.908;35.556;2022-08-19T03:19:46;98678.41;;;21.08;74.30
73338;BME280;61575;49.908;35.556;2022-08-19T03:22:48;98689.56;;;21.06;74.67
73338;BME280;61575;49.908;35.556;2022-08-19T03:25:52;98690.38;;;21.07;74.68
73338;BME280;61575;49.908;35.556;2022-08-19T03:29:07;98690.97;;;21.09;74.50
73338;BME280;61575;49.908;35.556;2022-08-19T03:32:13;98693.75;;;21.14;74.34
73338;BME280;61575;49.908;35.556;2022-08-19T03:35:33;98697.56;;;21.13;74.12
73338;BME280;61575;49.908;35.556;2022-08-19T03:38:49;98701.19;;;21.18;73.84
73338;BME280;61575;49.908;35.556;2022-08-19T03:42:00;98700.03;;;21.14;73.81
73338;BME280;61575;49.908;35.556;2022-08-19T03:45:23;98697.38;;;21.19;73.67
73338;BME280;61575;49.908;35.556;2022-08-19T03:48:25;98698.72;;;21.17;73.62
73338;BME280;61575;49.908;35.556;2022-08-19T03:51:33;98696.41;;;21.25;73.74
73338;BME280;61575;49.908;35.556;2022-08-19T03:54:37;98697.81;;;21.28;73.46
73338;BME280;61575;49.908;35.556;2022-08-19T03:57:40;98706.56;;;21.30;73.46
73338;BME280;61575;49.908;35.556;2022-08-19T04:00:42;98703.38;;;21.38;73.16
73338;BME280;61575;49.908;35.556;2022-08-19T04:03:45;98712.97;;;21.41;73.06
73338;BME280;61575;49.908;35.556;2022-08-19T04:06:51;98713.34;;;21.49;72.44
73338;BME280;61575;49.908;35.556;2022-08-19T04:09:52;98710.44;;;21.56;72.05
73338;BME280;61575;49.908;35.556;2022-08-19T04:12:55;98727.50;;;21.68;71.40
73338;BME280;61575;49.908;35.556;2022-08-19T04:15:57;98724.78;;;21.68;71.00
73338;BME280;61575;49.908;35.556;2022-08-19T04:19:02;98717.53;;;21.79;70.48
73338;BME280;61575;49.908;35.556;2022-08-19T04:22:04;98724.88;;;22.00;70.10
73338;BME280;61575;49.908;35.556;2022-08-19T04:28:12;98722.44;;;22.25;69.11
73338;BME280;61575;49.908;35.556;2022-08-19T04:31:23;98727.47;;;22.39;68.34
73338;BME280;61575;49.908;35.556;2022-08-19T04:34:29;98728.88;;;22.41;68.16
73338;BME280;61575;49.908;35.556;2022-08-19T04:37:31;98728.09;;;22.46;67.64
73338;BME280;61575;49.908;35.556;2022-08-19T04:40:47;98731.47;;;22.58;66.81
73338;BME280;61575;49.908;35.556;2022-08-19T04:44:07;98742.16;;;22.59;66.87
73338;BME280;61575;49.908;35.556;2022-08-19T04:47:09;98744.19;;;22.74;66.23
73338;BME280;61575;49.908;35.556;2022-08-19T04:50:12;98751.69;;;22.84;66.09
73338;BME280;61575;49.908;35.556;2022-08-19T04:53:14;98744.13;;;22.96;65.68
73338;BME280;61575;49.908;35.556;2022-08-19T04:56:17;98751.91;;;23.14;65.06
73338;BME280;61575;49.908;35.556;2022-08-19T04:59:23;98740.28;;;23.34;64.31
73338;BME280;61575;49.908;35.556;2022-08-19T05:02:25;98745.56;;;23.51;63.22
73338;BME280;61575;49.908;35.556;2022-08-19T05:05:27;98747.81;;;23.54;62.99
73338;BME280;61575;49.908;35.556;2022-08-19T05:08:29;98748.66;;;23.60;62.69
73338;BME280;61575;49.908;35.556;2022-08-19T05:11:34;98759.13;;;23.73;61.68
73338;BME280;61575;49.908;35.556;2022-08-19T05:14:37;98759.69;;;23.80;61.91
73338;BME280;61575;49.908;35.556;2022-08-19T05:17:39;98766.59;;;23.98;61.34
73338;BME280;61575;49.908;35.556;2022-08-19T05:21:06;98767.75;;;24.12;60.95
73338;BME280;61575;49.908;35.556;2022-08-19T05:24:29;98761.25;;;24.28;60.10
73338;BME280;61575;49.908;35.556;2022-08-19T05:27:32;98759.56;;;24.17;59.38
73338;BME280;61575;49.908;35.556;2022-08-19T05:30:34;98760.44;;;24.28;59.40
73338;BME280;61575;49.908;35.556;2022-08-19T05:33:48;98757.44;;;24.39;58.86
73338;BME280;61575;49.908;35.556;2022-08-19T05:36:57;98757.72;;;24.43;58.58
73338;BME280;61575;49.908;35.556;2022-08-19T05:39:59;98760.75;;;24.57;58.43
73338;BME280;61575;49.908;35.556;2022-08-19T05:43:02;98752.81;;;24.55;58.14
73338;BME280;61575;49.908;35.556;2022-08-19T05:46:06;98762.13;;;24.84;57.92
73338;BME280;61575;49.908;35.556;2022-08-19T05:49:08;98765.97;;;24.89;57.12
73338;BME280;61575;49.908;35.556;2022-08-19T05:52:11;98767.94;;;25.03;57.16
73338;BME280;61575;49.908;35.556;2022-08-19T05:55:13;98769.28;;;25.26;56.62
73338;BME280;61575;49.908;35.556;2022-08-19T05:58:15;98764.59;;;25.37;55.66
73338;BME280;61575;49.908;35.556;2022-08-19T06:01:18;98772.25;;;25.50;55.75
73338;BME280;61575;49.908;35.556;2022-08-19T06:04:21;98769.47;;;25.60;55.44
73338;BME280;61575;49.908;35.556;2022-08-19T06:07:24;98772.44;;;25.84;54.68
73338;BME280;61575;49.908;35.556;2022-08-19T06:10:26;98770.19;;;25.96;54.41
73338;BME280;61575;49.908;35.556;2022-08-19T06:13:28;98769.19;;;26.26;53.42
73338;BME280;61575;49.908;35.556;2022-08-19T06:16:37;98780.50;;;26.20;53.46
73338;BME280;61575;49.908;35.556;2022-08-19T06:19:40;98784.00;;;26.30;53.36
73338;BME280;61575;49.908;35.556;2022-08-19T06:22:46;98783.47;;;26.28;52.39
73338;BME280;61575;49.908;35.556;2022-08-19T06:26:01;98791.91;;;26.47;52.50
73338;BME280;61575;49.908;35.556;2022-08-19T06:29:05;98791.78;;;26.67;52.11
73338;BME280;61575;49.908;35.556;2022-08-19T06:32:07;98793.41;;;26.68;51.88
73338;BME280;61575;49.908;35.556;2022-08-19T06:35:09;98795.59;;;26.71;51.59
73338;BME280;61575;49.908;35.556;2022-08-19T06:38:12;98787.72;;;26.99;51.75
73338;BME280;61575;49.908;35.556;2022-08-19T06:41:14;98794.97;;;27.19;51.02
73338;BME280;61575;49.908;35.556;2022-08-19T06:44:18;98795.50;;;27.21;50.80
73338;BME280;61575;49.908;35.556;2022-08-19T06:47:24;98788.16;;;27.40;50.03
73338;BME280;61575;49.908;35.556;2022-08-19T06:50:29;98794.56;;;27.59;50.07
73338;BME280;61575;49.908;35.556;2022-08-19T06:53:32;98787.69;;;27.86;49.30
73338;BME280;61575;49.908;35.556;2022-08-19T06:56:34;98792.38;;;28.09;49.02
73338;BME280;61575;49.908;35.556;2022-08-19T06:59:36;98796.31;;;28.27;48.86
73338;BME280;61575;49.908;35.556;2022-08-19T07:02:41;98794.97;;;28.43;48.05
73338;BME280;61575;49.908;35.556;2022-08-19T07:06:18;98800.63;;;28.33;47.82
73338;BME280;61575;49.908;35.556;2022-08-19T07:09:43;98802.97;;;28.45;48.45
73338;BME280;61575;49.908;35.556;2022-08-19T07:12:57;98811.84;;;28.60;47.71
73338;BME280;61575;49.908;35.556;2022-08-19T07:16:06;98808.78;;;28.62;47.60
73338;BME280;61575;49.908;35.556;2022-08-19T07:19:09;98817.13;;;28.76;47.65
73338;BME280;61575;49.908;35.556;2022-08-19T07:22:17;98811.09;;;28.74;47.10
73338;BME280;61575;49.908;35.556;2022-08-19T07:25:20;98810.88;;;28.89;47.11
73338;BME280;61575;49.908;35.556;2022-08-19T07:28:33;98814.78;;;29.20;46.68
73338;BME280;61575;49.908;35.556;2022-08-19T07:31:35;98815.28;;;29.22;46.10
73338;BME280;61575;49.908;35.556;2022-08-19T07:34:38;98825.53;;;29.22;46.30
73338;BME280;61575;49.908;35.556;2022-08-19T07:37:43;98822.19;;;29.39;46.02
73338;BME280;61575;49.908;35.556;2022-08-19T07:40:45;98821.94;;;29.21;45.83
73338;BME280;61575;49.908;35.556;2022-08-19T07:43:48;98827.19;;;29.37;46.41
73338;BME280;61575;49.908;35.556;2022-08-19T07:46:53;98832.59;;;29.28;45.76
73338;BME280;61575;49.908;35.556;2022-08-19T07:50:01;98828.88;;;29.19;46.14
73338;BME280;61575;49.908;35.556;2022-08-19T07:53:11;98822.56;;;29.51;45.51
73338;BME280;61575;49.908;35.556;2022-08-19T07:56:18;98843.09;;;29.45;45.20
73338;BME280;61575;49.908;35.556;2022-08-19T07:59:28;98839.31;;;29.22;46.28
73338;BME280;61575;49.908;35.556;2022-08-19T08:02:30;98835.94;;;28.92;47.17
73338;BME280;61575;49.908;35.556;2022-08-19T08:05:32;98839.19;;;28.76;47.22
73338;BME280;61575;49.908;35.556;2022-08-19T08:08:53;98846.13;;;28.54;47.86
73338;BME280;61575;49.908;35.556;2022-08-19T08:12:20;98845.44;;;28.44;48.46
73338;BME280;61575;49.908;35.556;2022-08-19T08:15:37;98845.28;;;28.54;47.88
73338;BME280;61575;49.908;35.556;2022-08-19T08:18:43;98843.66;;;28.72;47.31
73338;BME280;61575;49.908;35.556;2022-08-19T08:21:55;98842.63;;;29.05;48.06
73338;BME280;61575;49.908;35.556;2022-08-19T08:25:03;98843.44;;;29.57;46.52
73338;BME280;61575;49.908;35.556;2022-08-19T08:28:07;98846.50;;;30.02;45.54
73338;BME280;61575;49.908;35.556;2022-08-19T08:31:18;98856.50;;;29.97;45.82
73338;BME280;61575;49.908;35.556;2022-08-19T08:34:23;98854.59;;;30.12;45.78
73338;BME280;61575;49.908;35.556;2022-08-19T08:37:27;98846.88;;;30.50;44.92
73338;BME280;61575;49.908;35.556;2022-08-19T08:40:47;98853.81;;;30.75;44.03
73338;BME280;61575;49.908;35.556;2022-08-19T08:43:52;98849.84;;;30.67;43.99
73338;BME280;61575;49.908;35.556;2022-08-19T08:47:02;98846.28;;;30.25;44.13
73338;BME280;61575;49.908;35.556;2022-08-19T08:50:15;98849.94;;;29.93;44.96
73338;BME280;61575;49.908;35.556;2022-08-19T08:53:21;98855.72;;;30.11;45.83
73338;BME280;61575;49.908;35.556;2022-08-19T08:56:32;98849.16;;;30.07;44.99
73338;BME280;61575;49.908;35.556;2022-08-19T08:59:37;98844.84;;;30.14;44.22
73338;BME280;61575;49.908;35.556;2022-08-19T09:02:40;98852.84;;;30.02;45.35
73338;BME280;61575;49.908;35.556;2022-08-19T09:06:00;98850.91;;;30.03;45.92
73338;BME280;61575;49.908;35.556;2022-08-19T09:09:32;98854.56;;;29.98;44.56
73338;BME280;61575;49.908;35.556;2022-08-19T09:16:16;98852.94;;;30.38;44.76
73338;BME280;61575;49.908;35.556;2022-08-19T09:19:23;98847.22;;;30.07;44.52
73338;BME280;61575;49.908;35.556;2022-08-19T09:22:25;98843.41;;;30.17;44.92
73338;BME280;61575;49.908;35.556;2022-08-19T09:25:28;98845.38;;;30.03;44.94
73338;BME280;61575;49.908;35.556;2022-08-19T09:28:33;98849.25;;;30.02;45.08
73338;BME280;61575;49.908;35.556;2022-08-19T09:31:35;98843.00;;;30.37;44.09
73338;BME280;61575;49.908;35.556;2022-08-19T09:34:37;98854.56;;;30.67;44.03
73338;BME280;61575;49.908;35.556;2022-08-19T09:37:44;98849.94;;;30.98;43.75
73338;BME280;61575;49.908;35.556;2022-08-19T09:40:46;98856.88;;;31.32;42.28
73338;BME280;61575;49.908;35.556;2022-08-19T09:43:51;98861.16;;;31.38;42.13
73338;BME280;61575;49.908;35.556;2022-08-19T09:46:54;98861.59;;;31.53;41.41
73338;BME280;61575;49.908;35.556;2022-08-19T09:49:56;98855.63;;;31.38;41.87
73338;BME280;61575;49.908;35.556;2022-08-19T09:52:59;98858.38;;;31.60;42.00
73338;BME280;61575;49.908;35.556;2022-08-19T09:56:07;98854.78;;;31.60;40.89
73338;BME280;61575;49.908;35.556;2022-08-19T09:59:11;98857.50;;;31.73;41.64
73338;BME280;61575;49.908;35.556;2022-08-19T10:02:13;98861.13;;;31.82;41.54
73338;BME280;61575;49.908;35.556;2022-08-19T10:05:22;98872.34;;;31.77;40.57
73338;BME280;61575;49.908;35.556;2022-08-19T10:08:44;98858.69;;;31.81;40.83
73338;BME280;61575;49.908;35.556;2022-08-19T10:11:51;98859.88;;;31.66;40.78
73338;BME280;61575;49.908;35.556;2022-08-19T10:15:16;98861.66;;;31.93;40.98
73338;BME280;61575;49.908;35.556;2022-08-19T10:18:29;98861.66;;;31.93;40.77
73338;BME280;61575;49.908;35.556;2022-08-19T10:21:34;98861.34;;;31.95;40.29
73338;BME280;61575;49.908;35.556;2022-08-19T10:24:36;98863.88;;;32.13;40.13
73338;BME280;61575;49.908;35.556;2022-08-19T10:27:40;98861.25;;;32.08;40.54
73338;BME280;61575;49.908;35.556;2022-08-19T10:30:51;98864.09;;;31.86;40.50
73338;BME280;61575;49.908;35.556;2022-08-19T10:33:54;98858.78;;;32.07;40.57
73338;BME280;61575;49.908;35.556;2022-08-19T10:37:07;98856.78;;;32.30;39.74
73338;BME280;61575;49.908;35.556;2022-08-19T10:40:15;98859.56;;;32.38;40.20
73338;BME280;61575;49.908;35.556;2022-08-19T10:43:17;98862.69;;;32.45;39.74
73338;BME280;61575;49.908;35.556;2022-08-19T10:46:22;98854.41;;;32.63;39.65
73338;BME280;61575;49.908;35.556;2022-08-19T10:49:26;98856.06;;;32.72;39.10
73338;BME280;61575;49.908;35.556;2022-08-19T10:52:28;98850.22;;;32.82;39.23
73338;BME280;61575;49.908;35.556;2022-08-19T10:55:39;98845.81;;;32.81;38.60
73338;BME280;61575;49.908;35.556;2022-08-19T10:59:00;98838.63;;;32.89;38.68
73338;BME280;61575;49.908;35.556;2022-08-19T11:02:08;98837.31;;;32.95;38.73
73338;BME280;61575;49.908;35.556;2022-08-19T11:05:14;98840.41;;;33.02;38.99
73338;BME280;61575;49.908;35.556;2022-08-19T11:08:16;98837.31;;;33.04;38.65
73338;BME280;61575;49.908;35.556;2022-08-19T11:11:24;98834.22;;;32.88;38.98
73338;BME280;61575;49.908;35.556;2022-08-19T11:14:26;98840.41;;;32.85;38.50
73338;BME280;61575;49.908;35.556;2022-08-19T11:17:34;98841.06;;;32.91;39.29
73338;BME280;61575;49.908;35.556;2022-08-19T11:20:37;98846.78;;;32.77;39.17
73338;BME280;61575;49.908;35.556;2022-08-19T11:23:39;98843.47;;;32.75;39.29
73338;BME280;61575;49.908;35.556;2022-08-19T11:26:43;98848.19;;;32.66;39.17
73338;BME280;61575;49.908;35.556;2022-08-19T11:29:45;98838.38;;;32.51;39.62
73338;BME280;61575;49.908;35.556;2022-08-19T11:32:50;98834.81;;;32.68;39.30
73338;BME280;61575;49.908;35.556;2022-08-19T11:35:53;98830.63;;;32.88;39.26
73338;BME280;61575;49.908;35.556;2022-08-19T11:38:55;98827.50;;;32.89;39.27
73338;BME280;61575;49.908;35.556;2022-08-19T11:41:58;98825.06;;;32.88;38.89
73338;BME280;61575;49.908;35.556;2022-08-19T11:45:03;98822.78;;;32.98;38.19
73338;BME280;61575;49.908;35.556;2022-08-19T11:48:05;98826.53;;;33.02;38.53
73338;BME280;61575;49.908;35.556;2022-08-19T11:51:15;98829.94;;;32.73;38.73
73338;BME280;61575;49.908;35.556;2022-08-19T11:54:17;98828.44;;;32.59;39.20
73338;BME280;61575;49.908;35.556;2022-08-19T11:57:19;98820.28;;;32.71;38.83
73338;BME280;61575;49.908;35.556;2022-08-19T12:00:21;98818.47;;;32.58;39.43
73338;BME280;61575;49.908;35.556;2022-08-19T12:03:23;98823.19;;;32.40;39.75
73338;BME280;61575;49.908;35.556;2022-08-19T12:06:28;98825.97;;;32.40;39.75
73338;BME280;61575;49.908;35.556;2022-08-19T12:09:30;98804.13;;;32.56;39.76
73338;BME280;61575;49.908;35.556;2022-08-19T12:12:34;98805.25;;;32.72;39.38
73338;BME280;61575;49.908;35.556;2022-08-19T12:15:37;98809.16;;;32.53;39.94
73338;BME280;61575;49.908;35.556;2022-08-19T12:18:42;98805.22;;;32.37;39.66
73338;BME280;61575;49.908;35.556;2022-08-19T12:21:48;98794.16;;;32.55;39.05
73338;BME280;61575;49.908;35.556;2022-08-19T12:24:50;98800.19;;;32.57;39.81
73338;BME280;61575;49.908;35.556;2022-08-19T12:27:53;98804.09;;;32.38;39.86
73338;BME280;61575;49.908;35.556;2022-08-19T12:30:58;98803.59;;;32.36;39.32
73338;BME280;61575;49.908;35.556;2022-08-19T12:34:00;98802.97;;;32.65;40.13
73338;BME280;61575;49.908;35.556;2022-08-19T12:37:05;98809.50;;;32.52;39.75
73338;BME280;61575;49.908;35.556;2022-08-19T12:40:08;98811.09;;;32.27;39.85
73338;BME280;61575;49.908;35.556;2022-08-19T12:43:10;98813.09;;;32.04;40.28
73338;BME280;61575;49.908;35.556;2022-08-19T12:46:13;98803.91;;;31.86;40.76
73338;BME280;61575;49.908;35.556;2022-08-19T12:49:18;98812.22;;;31.86;40.37
73338;BME280;61575;49.908;35.556;2022-08-19T12:52:40;98815.28;;;31.76;40.63
73338;BME280;61575;49.908;35.556;2022-08-19T12:55:44;98810.25;;;31.56;41.26
73338;BME280;61575;49.908;35.556;2022-08-19T12:58:48;98817.22;;;31.45;41.41
73338;BME280;61575;49.908;35.556;2022-08-19T13:01:53;98818.47;;;31.39;41.52
73338;BME280;61575;49.908;35.556;2022-08-19T13:04:57;98810.13;;;31.30;41.67
73338;BME280;61575;49.908;35.556;2022-08-19T13:08:00;98818.75;;;31.29;41.89
73338;BME280;61575;49.908;35.556;2022-08-19T13:11:13;98813.88;;;31.34;41.59
73338;BME280;61575;49.908;35.556;2022-08-19T13:14:16;98818.56;;;31.25;40.97
73338;BME280;61575;49.908;35.556;2022-08-19T13:17:18;98811.53;;;31.19;41.40
73338;BME280;61575;49.908;35.556;2022-08-19T13:20:21;98815.22;;;31.37;41.33
73338;BME280;61575;49.908;35.556;2022-08-19T13:23:23;98797.38;;;31.51;40.73
73338;BME280;61575;49.908;35.556;2022-08-19T13:26:25;98797.84;;;31.53;40.73
73338;BME280;61575;49.908;35.556;2022-08-19T13:29:27;98800.53;;;31.67;40.36
73338;BME280;61575;49.908;35.556;2022-08-19T13:32:48;98792.22;;;31.67;40.21
73338;BME280;61575;49.908;35.556;2022-08-19T13:40:20;98801.25;;;31.73;40.47
73338;BME280;61575;49.908;35.556;2022-08-19T13:43:26;98810.47;;;31.68;40.36
73338;BME280;61575;49.908;35.556;2022-08-19T13:46:28;98806.28;;;31.71;41.08
73338;BME280;61575;49.908;35.556;2022-08-19T13:49:32;98813.19;;;31.82;40.86
73338;BME280;61575;49.908;35.556;2022-08-19T13:52:34;98810.59;;;31.85;40.95
73338;BME280;61575;49.908;35.556;2022-08-19T13:55:41;98821.03;;;31.88;41.16
73338;BME280;61575;49.908;35.556;2022-08-19T13:58:47;98824.97;;;31.96;40.60
73338;BME280;61575;49.908;35.556;2022-08-19T14:01:49;98833.91;;;31.84;41.23
73338;BME280;61575;49.908;35.556;2022-08-19T14:04:52;98842.09;;;31.67;41.47
73338;BME280;61575;49.908;35.556;2022-08-19T14:07:54;98847.38;;;31.46;41.30
73338;BME280;61575;49.908;35.556;2022-08-19T14:10:57;98844.28;;;31.25;41.44
73338;BME280;61575;49.908;35.556;2022-08-19T14:14:06;98837.59;;;31.18;41.88
73338;BME280;61575;49.908;35.556;2022-08-19T14:17:08;98836.81;;;31.26;42.05
73338;BME280;61575;49.908;35.556;2022-08-19T14:20:14;98837.28;;;31.50;41.91
73338;BME280;61575;49.908;35.556;2022-08-19T14:23:19;98830.78;;;31.77;42.05
73338;BME280;61575;49.908;35.556;2022-08-19T14:26:21;98833.41;;;31.82;41.36
73338;BME280;61575;49.908;35.556;2022-08-19T14:29:25;98839.31;;;31.89;40.81
73338;BME280;61575;49.908;35.556;2022-08-19T14:32:30;98839.91;;;31.78;40.92
73338;BME280;61575;49.908;35.556;2022-08-19T14:35:33;98839.28;;;31.81;40.44
73338;BME280;61575;49.908;35.556;2022-08-19T14:38:36;98837.59;;;31.71;41.08
73338;BME280;61575;49.908;35.556;2022-08-19T14:41:40;98842.06;;;31.58;41.18
73338;BME280;61575;49.908;35.556;2022-08-19T14:44:43;98847.91;;;31.57;41.48
73338;BME280;61575;49.908;35.556;2022-08-19T14:47:45;98843.31;;;31.52;40.95
73338;BME280;61575;49.908;35.556;2022-08-19T14:50:47;98839.88;;;31.24;41.14
73338;BME280;61575;49.908;35.556;2022-08-19T14:53:49;98855.75;;;31.10;41.16
73338;BME280;61575;49.908;35.556;2022-08-19T14:56:52;98839.34;;;30.78;41.77
73338;BME280;61575;49.908;35.556;2022-08-19T14:59:54;98835.69;;;30.69;41.99
73338;BME280;61575;49.908;35.556;2022-08-19T15:02:56;98834.59;;;30.42;42.28
73338;BME280;61575;49.908;35.556;2022-08-19T15:06:03;98826.63;;;30.27;42.81
73338;BME280;61575;49.908;35.556;2022-08-19T15:09:05;98834.63;;;30.15;43.17
73338;BME280;61575;49.908;35.556;2022-08-19T15:12:08;98825.41;;;30.06;43.63
73338;BME280;61575;49.908;35.556;2022-08-19T15:15:13;98829.47;;;29.94;43.89
73338;BME280;61575;49.908;35.556;2022-08-19T15:18:18;98827.22;;;29.83;44.04
73338;BME280;61575;49.908;35.556;2022-08-19T15:21:23;98818.28;;;29.72;44.57
73338;BME280;61575;49.908;35.556;2022-08-19T15:24:38;98835.38;;;29.60;44.84
73338;BME280;61575;49.908;35.556;2022-08-19T15:27:52;98836.66;;;29.49;44.77
73338;BME280;61575;49.908;35.556;2022-08-19T15:30:58;98853.69;;;29.38;45.14
73338;BME280;61575;49.908;35.556;2022-08-19T15:34:00;98844.28;;;29.39;45.17
73338;BME280;61575;49.908;35.556;2022-08-19T15:37:02;98842.59;;;29.24;45.63
73338;BME280;61575;49.908;35.556;2022-08-19T15:40:08;98848.13;;;29.24;45.30
73338;BME280;61575;49.908;35.556;2022-08-19T15:43:11;98852.69;;;29.15;45.63
73338;BME280;61575;49.908;35.556;2022-08-19T15:46:19;98857.94;;;28.97;45.95
73338;BME280;61575;49.908;35.556;2022-08-19T15:49:23;98854.50;;;28.87;46.29
73338;BME280;61575;49.908;35.556;2022-08-19T15:52:24;98856.56;;;28.76;46.41
73338;BME280;61575;49.908;35.556;2022-08-19T15:55:31;98852.63;;;28.82;46.70
73338;BME280;61575;49.908;35.556;2022-08-19T15:58:36;98850.63;;;28.88;46.53
73338;BME280;61575;49.908;35.556;2022-08-19T16:01:57;98855.84;;;28.89;46.27
73338;BME280;61575;49.908;35.556;2022-08-19T16:05:20;98864.75;;;28.81;47.06
73338;BME280;61575;49.908;35.556;2022-08-19T16:08:41;98863.78;;;28.72;47.13
73338;BME280;61575;49.908;35.556;2022-08-19T16:11:50;98871.78;;;28.74;47.03
73338;BME280;61575;49.908;35.556;2022-08-19T16:15:00;98888.41;;;28.68;47.31
73338;BME280;61575;49.908;35.556;2022-08-19T16:18:02;98883.19;;;28.67;47.51
73338;BME280;61575;49.908;35.556;2022-08-19T16:21:05;98897.50;;;28.69;47.70
73338;BME280;61575;49.908;35.556;2022-08-19T16:24:11;98900.06;;;28.84;47.27